Latest Weather Observations for Carnarvon

IDW60801

Issued at 12:02 pm WST Sunday 5 July 2015 (issued every 30 minutes, with the page automatically refreshed every 10 minutes)

About weather observations | Map of weather stations | Latest weather observations for WA | Other Formats
Station Details ID: 006011 Name: CARNARVON AIRPORT Lat: -24.89 Lon: 113.67 Height: 4.0 m
Data from the previous 72 hours. | See also: Recent months at Carnarvon
Date/Time
WST
Temp
°C
App
Temp
°C
Dew
Point
Rel
Hum
%
Delta-T
°C
Wind Press
QNH
hPa
Press
MSL
hPa
Rain
since 9 am
mm
Dir
 
Spd
km/h
Gust
km/h
Spd
kts
Gust
kts
05/12:00pm 21.4 19.8 13.8 62 4.4 SSW 15 17 8 9 1021.2 1021.2 0.0
05/11:30am 21.5 19.7 13.3 59 4.7 SSW 15 19 8 10 1021.6 - 0.0
05/11:00am 20.5 18.3 13.3 63 4.1 SSW 17 20 9 11 1022.0 - 0.0
05/10:30am 20.6 18.8 12.2 58 4.7 S 13 17 7 9 1022.2 - 0.0
05/10:00am 19.3 17.5 12.1 63 4.0 S 13 19 7 10 1022.2 - 0.0
05/09:30am 18.4 15.9 12.4 68 3.3 SSE 17 20 9 11 1022.1 - 0.0
05/09:00am 17.1 14.9 13.4 79 2.1 SSE 17 22 9 12 1021.9 1021.9 0.0
05/08:30am 15.8 14.1 13.5 86 1.3 SSE 15 20 8 11 1021.7 - 0.0
05/08:00am 14.5 13.0 13.2 92 0.7 SSE 13 17 7 9 1021.4 - 0.0
05/07:30am 12.6 10.8 12.0 96 0.3 SSE 13 15 7 8 1021.1 - 0.0
05/07:00am 12.6 10.7 11.8 95 0.4 SSE 13 15 7 8 1020.9 - 0.0
05/06:30am 12.8 11.0 12.1 95 0.4 SSE 13 15 7 8 1020.7 - 0.0
05/06:00am 12.7 10.4 11.9 95 0.4 SSE 15 17 8 9 1020.5 1020.5 0.0
05/05:30am 12.6 11.2 12.2 97 0.2 SSE 11 13 6 7 1020.3 - 0.0
05/05:00am 12.1 10.9 11.5 96 0.3 SSE 9 13 5 7 1020.2 - 0.0
05/04:53am 12.4 10.6 12.0 97 0.2 SSE 13 15 7 8 1020.3 - 0.0
05/04:30am 12.8 11.5 12.4 97 0.2 SSE 11 13 6 7 1020.3 - 0.0
05/04:00am 12.5 11.9 12.3 99 0.1 SE 7 9 4 5 1020.5 - 0.0
05/03:35am 13.1 12.2 12.7 97 0.2 SE 9 11 5 6 1020.4 - 0.0
05/03:30am 13.3 12.4 12.7 96 0.3 SE 9 11 5 6 1020.3 - 0.0
05/03:00am 13.3 12.0 12.6 95 0.4 SSE 11 13 6 7 1020.4 1020.4 0.0
05/02:30am 13.4 12.6 12.8 96 0.3 SE 9 11 5 6 1020.5 - 0.0
05/02:00am 14.7 13.5 14.0 96 0.4 SSE 13 15 7 8 1020.6 - 0.0
05/01:30am 15.1 13.6 14.2 94 0.5 SSE 15 17 8 9 1020.7 - 0.0
05/01:00am 15.9 15.0 14.9 94 0.6 S 13 17 7 9 1020.8 - 0.0
05/12:30am 16.4 15.6 15.2 93 0.7 SSE 13 15 7 8 1021.0 - 0.0
05/12:00am 16.6 16.2 15.2 91 0.8 S 11 13 6 7 1021.0 1021.0 0.0
 
Date/Time
WST
Temp
°C
App
Temp
°C
Dew
Point
Rel
Hum
%
Delta-T
°C
Wind Press
QNH
hPa
Press
MSL
hPa
Rain
since 9 am
mm
Dir
 
Spd
km/h
Gust
km/h
Spd
kts
Gust
kts
04/11:30pm 17.1 16.1 15.6 91 0.9 S 15 19 8 10 1021.1 - 0.0
04/11:00pm 17.4 16.4 15.5 89 1.1 S 15 19 8 10 1021.1 - 0.0
04/10:30pm 17.8 16.4 15.6 87 1.3 S 17 24 9 13 1021.2 - 0.0
04/10:00pm 18.2 16.4 16.0 87 1.3 S 20 24 11 13 1021.0 - 0.0
04/09:30pm 18.3 16.3 15.0 81 1.9 S 19 24 10 13 1021.1 - 0.0
04/09:00pm 18.1 16.0 14.8 81 1.9 S 19 20 10 11 1021.2 1021.2 0.0
04/08:30pm 17.2 15.6 14.0 81 1.8 S 15 17 8 9 1021.0 - 0.0
04/08:00pm 17.1 16.8 14.5 85 1.5 S 9 11 5 6 1020.9 - 0.0
04/07:30pm 17.5 16.8 15.4 87 1.2 S 13 15 7 8 1020.7 - 0.0
04/07:00pm 18.0 17.7 15.4 85 1.5 S 11 17 6 9 1020.6 - 0.0
04/06:30pm 18.8 17.7 15.4 80 2.0 S 15 17 8 9 1020.5 - 0.0
04/06:00pm 19.4 17.7 14.8 75 2.7 S 17 19 9 10 1020.3 1020.3 0.0
04/05:30pm 20.3 18.9 14.4 69 3.4 S 15 19 8 10 1020.2 - 0.0
04/05:00pm 21.2 19.4 14.5 65 3.9 S 17 22 9 12 1020.2 - 0.0
04/04:30pm 21.5 19.1 14.3 63 4.2 S 20 24 11 13 1020.2 - 0.0
04/04:00pm 21.4 18.4 13.8 62 4.4 SSW 22 28 12 15 1020.2 - 0.0
04/03:30pm 21.6 18.0 13.2 59 4.8 SSW 24 30 13 16 1020.2 - 0.0
04/03:00pm 21.9 18.3 11.7 52 5.7 SSW 22 26 12 14 1020.0 1020.0 0.0
04/02:30pm 22.6 18.8 8.9 41 7.3 SSW 19 24 10 13 1020.0 - 0.0
04/02:00pm 22.7 18.8 8.5 40 7.5 SSW 19 20 10 11 1020.2 - 0.0
04/01:30pm 22.5 20.2 12.9 54 5.5 SSW 17 19 9 10 1020.4 - 0.0
04/01:00pm 22.4 20.0 12.5 53 5.6 SSW 17 20 9 11 1020.7 - 0.0
04/12:30pm 21.2 17.8 12.5 57 4.9 SSW 22 24 12 13 1021.2 - 0.0
04/12:00pm 21.6 18.4 11.9 54 5.4 SSW 20 24 11 13 1021.6 1021.6 0.0
04/11:30am 21.1 18.6 12.4 57 4.9 SSW 17 22 9 12 1021.9 - 0.0
04/11:00am 21.2 17.9 9.4 47 6.3 S 17 20 9 11 1022.2 - 0.0
04/10:30am 20.4 17.1 9.7 50 5.7 SSE 17 22 9 12 1022.3 - 0.0
04/10:00am 19.4 16.1 10.9 58 4.6 SSE 19 24 10 13 1022.5 - 0.0
04/09:30am 18.1 15.0 11.7 66 3.5 SSE 19 24 10 13 1022.5 - 0.0
04/09:00am 16.9 14.1 12.7 76 2.3 SSE 19 22 10 12 1022.2 1022.2 0.2
04/08:30am 15.8 14.2 14.0 89 1.0 SSE 15 20 8 11 1022.0 - 0.2
04/08:00am 14.6 13.3 13.7 94 0.5 SSE 13 17 7 9 1021.9 - 0.2
04/07:30am 12.4 10.6 12.0 97 0.2 SE 13 15 7 8 1021.6 - 0.2
04/07:28am 12.4 10.6 12.0 97 0.2 SE 13 15 7 8 1021.6 - 0.2
04/07:00am 12.3 10.7 11.5 95 0.4 SE 11 13 6 7 1021.5 - 0.0
04/06:58am 12.2 11.0 11.6 96 0.3 SE 9 11 5 6 1021.5 - 0.0
04/06:30am 13.8 12.4 13.3 97 0.3 S 13 15 7 8 1021.3 - 0.0
04/06:00am 14.2 12.9 13.7 97 0.3 S 13 15 7 8 1021.2 1021.2 0.0
04/05:30am 14.9 13.8 14.2 96 0.4 S 13 15 7 8 1021.0 - 0.0
04/05:00am 15.0 14.0 14.5 97 0.3 S 13 17 7 9 1020.9 - 0.0
04/04:30am 14.5 13.7 14.0 97 0.3 SSE 11 13 6 7 1020.8 - 0.0
04/04:00am 15.5 14.6 14.8 96 0.4 SSE 13 15 7 8 1021.0 - 0.0
04/03:30am 16.1 14.9 15.1 94 0.6 S 15 17 8 9 1021.3 - 0.0
04/03:00am 16.0 14.8 15.0 94 0.6 S 15 17 8 9 1021.5 1021.5 0.0
04/02:30am 16.5 15.8 15.3 93 0.7 S 13 17 7 9 1021.6 - 0.0
04/02:00am 16.3 15.2 15.4 94 0.5 S 15 17 8 9 1021.7 - 0.0
04/01:30am 16.2 15.1 15.3 94 0.5 S 15 17 8 9 1021.9 - 0.0
04/01:00am 15.6 14.6 14.7 94 0.5 S 13 15 7 8 1022.0 - 0.0
04/12:30am 16.0 15.2 15.0 94 0.6 S 13 15 7 8 1022.0 - 0.0
04/12:00am 16.4 15.3 15.2 93 0.7 S 15 17 8 9 1022.0 1022.0 0.0
 
Date/Time
WST
Temp
°C
App
Temp
°C
Dew
Point
Rel
Hum
%
Delta-T
°C
Wind Press
QNH
hPa
Press
MSL
hPa
Rain
since 9 am
mm
Dir
 
Spd
km/h
Gust
km/h
Spd
kts
Gust
kts
03/11:30pm 16.5 15.7 15.1 91 0.8 S 13 17 7 9 1022.1 - 0.0
03/11:00pm 16.5 15.6 14.8 90 1.0 S 13 13 7 7 1022.2 - 0.0
03/10:30pm 17.4 16.3 15.3 87 1.2 S 15 19 8 10 1022.2 - 0.0
03/10:00pm 17.6 16.1 15.2 86 1.4 S 17 20 9 11 1022.1 - 0.0
03/09:30pm 17.0 15.3 14.7 86 1.3 S 17 19 9 10 1022.1 - 0.0
03/09:00pm 14.8 13.0 12.0 83 1.5 S 13 13 7 7 1022.1 1022.1 0.0
03/08:30pm 15.3 14.0 12.6 84 1.5 S 11 13 6 7 1022.0 - 0.0
03/08:00pm 16.1 15.2 13.8 86 1.3 S 11 13 6 7 1021.8 - 0.0
03/07:30pm 16.4 15.2 13.9 85 1.4 S 13 13 7 7 1021.6 - 0.0
03/07:00pm 17.5 17.0 14.9 85 1.5 S 11 13 6 7 1021.4 - 0.0
03/06:30pm 18.0 17.3 14.3 79 2.1 S 11 13 6 7 1021.2 - 0.0
03/06:00pm 19.3 17.7 13.9 71 3.1 S 15 19 8 10 1020.9 1020.9 0.0
03/05:30pm 20.4 18.4 12.6 61 4.4 S 15 19 8 10 1020.8 - 0.0
03/05:00pm 21.3 19.1 12.2 56 5.1 S 15 19 8 10 1020.8 - 0.0
03/04:30pm 21.6 18.3 11.7 53 5.5 S 20 24 11 13 1020.8 - 0.0
03/04:00pm 21.6 18.5 12.2 55 5.3 SSW 20 28 11 15 1020.7 - 0.0
03/03:30pm 21.4 18.6 13.2 59 4.7 SSW 20 26 11 14 1020.7 - 0.0
03/03:00pm 21.6 19.0 15.0 66 3.9 SSW 22 26 12 14 1020.8 1020.8 0.0
03/02:30pm 21.4 18.8 14.9 66 3.8 SSW 22 28 12 15 1020.8 - 0.0
03/02:00pm 22.1 19.2 12.8 55 5.3 SSW 20 24 11 13 1020.9 - 0.0
03/01:30pm 21.5 18.5 12.7 57 5.0 SSW 20 24 11 13 1021.2 - 0.0
03/01:00pm 21.8 18.7 12.2 54 5.4 SSW 20 24 11 13 1021.4 - 0.0
03/12:30pm 21.0 17.4 12.0 56 5.0 SSW 22 26 12 14 1021.8 - 0.0
03/12:00pm 21.6 18.2 11.3 52 5.7 SSW 20 24 11 13 1022.3 1022.3 0.0
03/11:30am 21.7 19.1 10.7 49 6.0 SSW 15 17 8 9 1022.7 - 0.0
03/11:00am 21.7 18.7 7.8 40 7.2 S 13 19 7 10 1023.0 - 0.0
03/10:30am 20.9 18.4 8.2 44 6.6 SSE 11 15 6 8 1023.1 - 0.0
03/10:00am 19.1 16.6 8.2 49 5.6 SSE 11 17 6 9 1023.1 - 0.0
03/09:30am 17.6 15.3 8.9 56 4.5 SE 11 13 6 7 1023.1 - 0.0
03/09:00am 15.1 13.1 8.8 66 3.2 SSE 9 13 5 7 1023.0 1023.0 0.0
03/08:30am 13.5 11.5 8.7 73 2.4 S 9 11 5 6 1022.9 - 0.0
03/08:00am 12.1 9.4 8.9 81 1.6 SE 13 15 7 8 1022.6 - 0.0
03/07:30am 10.5 7.5 7.8 83 1.3 SE 13 15 7 8 1022.2 - 0.0
03/07:00am 10.1 7.8 7.6 84 1.2 ESE 9 11 5 6 1021.9 - 0.0
03/06:30am 10.4 7.8 7.7 83 1.3 ESE 11 11 6 6 1021.6 - 0.0
03/06:00am 10.2 7.6 7.9 86 1.1 ESE 11 13 6 7 1021.4 1021.4 0.0
03/05:30am 10.3 7.4 8.0 86 1.1 ESE 13 13 7 7 1021.2 - 0.0
03/05:00am 10.8 8.0 8.6 86 1.1 ESE 13 13 7 7 1021.3 - 0.0
03/04:30am 11.3 8.9 8.7 84 1.3 SE 11 13 6 7 1021.4 - 0.0
03/04:00am 11.9 9.6 9.1 83 1.4 SE 11 13 6 7 1021.5 - 0.0
03/03:30am 12.0 9.8 9.4 84 1.3 ESE 11 13 6 7 1021.5 - 0.0
03/03:00am 11.8 9.8 10.0 89 0.9 SE 11 11 6 6 1021.6 1021.6 0.0
03/02:30am 11.9 9.9 10.1 89 0.9 SE 11 13 6 7 1021.8 - 0.0
03/02:00am 12.1 9.9 10.7 91 0.7 SE 13 13 7 7 1022.0 - 0.0
03/01:30am 12.2 10.9 11.2 94 0.5 ESE 9 11 5 6 1022.2 - 0.0
03/01:00am 12.6 11.3 11.3 92 0.7 SE 9 11 5 6 1022.5 - 0.0
03/12:30am 12.4 11.2 11.6 95 0.4 ESE 9 11 5 6 1022.8 - 0.0
03/12:00am 12.4 11.1 11.3 93 0.6 SE 9 9 5 5 1023.0 1023.0 0.0
 
Date/Time
WST
Temp
°C
App
Temp
°C
Dew
Point
Rel
Hum
%
Delta-T
°C
Wind Press
QNH
hPa
Press
MSL
hPa
Rain
since 9 am
mm
Dir
 
Spd
km/h
Gust
km/h
Spd
kts
Gust
kts
02/11:30pm 12.9 11.0 11.8 93 0.6 SE 13 15 7 8 1023.2 - 0.0
02/11:00pm 13.2 12.6 12.3 94 0.5 ESE 7 9 4 5 1023.2 - 0.0
02/10:30pm 14.2 13.5 13.1 93 0.6 SSE 9 11 5 6 1023.3 - 0.0
02/10:00pm 14.5 13.8 13.2 92 0.7 SSE 9 11 5 6 1023.3 - 0.0
02/09:30pm 14.5 13.6 12.7 89 1.0 SSE 9 11 5 6 1023.0 - 0.0
02/09:00pm 14.5 13.3 12.7 89 1.0 SSE 11 11 6 6 1022.8 1022.8 0.0
02/08:30pm 14.7 14.2 12.7 88 1.1 SSE 7 9 4 5 1022.5 - 0.0
02/08:00pm 15.4 15.1 13.4 88 1.1 SSE 7 9 4 5 1022.2 - 0.0
02/07:30pm 16.2 16.0 13.7 85 1.4 SSE 7 9 4 5 1021.8 - 0.0
02/07:00pm 18.3 17.7 14.7 79 2.1 SSW 11 13 6 7 1021.6 - 0.0
02/06:30pm 19.3 18.6 14.3 73 2.9 SSW 11 13 6 7 1021.3 - 0.0
02/06:00pm 20.0 19.2 15.0 73 2.9 SSW 13 15 7 8 1021.1 1021.1 0.0
02/05:30pm 20.6 19.0 14.0 66 3.8 SW 15 19 8 10 1021.0 - 0.0
02/05:00pm 21.4 19.3 13.6 61 4.5 WSW 17 20 9 11 1020.9 - 0.0
02/04:30pm 21.5 19.2 13.1 58 4.8 SW 17 22 9 12 1020.6 - 0.0
02/04:00pm 21.4 20.0 14.6 65 4.0 SW 15 19 8 10 1020.4 - 0.0
02/03:30pm 21.9 19.7 13.2 57 5.0 WSW 17 22 9 12 1020.4 - 0.0
02/03:00pm 22.8 20.7 9.6 43 7.1 WSW 11 13 6 7 1020.4 1020.4 0.0
02/02:30pm 22.8 19.8 10.8 46 6.6 WSW 17 22 9 12 1020.8 - 0.0
02/02:00pm 22.4 19.7 10.5 47 6.5 SSW 15 19 8 10 1020.5 - 0.0
02/01:30pm 26.1 22.8 0.3 18 12.0 E 7 11 4 6 1020.7 - 0.0
02/01:00pm 26.2 21.6 -1.2 16 12.4 E 13 20 7 11 1021.1 - 0.0
02/12:30pm 25.9 20.9 -1.0 17 12.2 E 15 19 8 10 1021.4 - 0.0

Other Formats:

Comma delimited format used in spreadsheet applications
http://www.bom.gov.au/fwo/IDW60801/IDW60801.94300.axf

JavaScript Object Notation format (JSON) in row-major order
http://www.bom.gov.au/fwo/IDW60801/IDW60801.94300.json